createdAt,value
2023-04-09T00:00:43.770Z,57.84
2023-04-09T00:03:10.996Z,57.96
2023-04-09T00:05:41.088Z,57.83
2023-04-09T00:08:08.204Z,58.02
2023-04-09T00:10:35.039Z,58.00
2023-04-09T00:13:02.698Z,57.92
2023-04-09T00:15:31.536Z,58.22
2023-04-09T00:17:59.356Z,58.07
2023-04-09T00:20:26.533Z,58.26
2023-04-09T00:22:53.389Z,58.24
2023-04-09T00:25:20.470Z,58.60
2023-04-09T00:27:47.309Z,58.61
2023-04-09T00:30:14.069Z,58.50
2023-04-09T00:32:41.274Z,58.60
2023-04-09T00:35:08.929Z,58.74
2023-04-09T00:37:35.852Z,58.76
2023-04-09T00:40:02.852Z,59.09
2023-04-09T00:42:33.517Z,58.97
2023-04-09T00:45:00.838Z,59.00
2023-04-09T00:47:29.926Z,59.46
2023-04-09T00:49:57.201Z,59.32
2023-04-09T00:52:24.787Z,59.76
2023-04-09T00:54:52.492Z,59.68
2023-04-09T00:57:20.226Z,60.00
2023-04-09T00:59:46.913Z,60.12
2023-04-09T01:02:13.934Z,60.16
2023-04-09T01:04:42.483Z,60.15
2023-04-09T01:07:20.952Z,60.59
2023-04-09T01:10:15.330Z,60.61
2023-04-09T01:13:01.274Z,60.95
2023-04-09T01:15:34.321Z,61.23
2023-04-09T01:18:08.192Z,61.27
2023-04-09T01:20:52.071Z,61.60
2023-04-09T01:23:45.724Z,61.52
2023-04-09T01:26:30.644Z,61.76
2023-04-09T01:28:59.417Z,61.81
2023-04-09T01:31:33.057Z,61.85
2023-04-09T01:34:02.790Z,62.27
2023-04-09T01:36:32.425Z,61.85
2023-04-09T01:39:01.682Z,61.93
2023-04-09T01:41:31.318Z,62.21
2023-04-09T01:44:01.810Z,62.17
2023-04-09T01:46:30.232Z,61.87
2023-04-09T01:48:57.878Z,61.98
2023-04-09T01:51:24.871Z,62.16
2023-04-09T01:53:51.744Z,61.82
2023-04-09T01:56:18.685Z,61.87
2023-04-09T01:58:45.374Z,62.11
2023-04-09T02:01:33.560Z,62.01
2023-04-09T02:04:05.578Z,61.74
2023-04-09T02:06:41.970Z,61.86
2023-04-09T02:09:09.876Z,61.73
2023-04-09T02:11:42.574Z,61.69
2023-04-09T02:14:11.311Z,61.97
2023-04-09T02:16:39.500Z,61.87
2023-04-09T02:19:06.423Z,61.97
2023-04-09T02:21:33.106Z,62.34
2023-04-09T02:23:59.897Z,61.94
2023-04-09T02:26:26.718Z,62.31
2023-04-09T02:28:53.751Z,62.37
2023-04-09T02:31:20.764Z,62.44
2023-04-09T02:33:47.730Z,62.79
2023-04-09T02:36:14.458Z,63.03
2023-04-09T02:38:42.187Z,62.89
2023-04-09T02:41:09.752Z,63.25
2023-04-09T02:43:36.738Z,63.20
2023-04-09T02:46:03.611Z,63.53
2023-04-09T02:48:30.525Z,63.38
2023-04-09T02:50:57.385Z,63.64
2023-04-09T02:53:24.134Z,63.66
2023-04-09T02:55:51.046Z,63.58
2023-04-09T02:58:17.698Z,63.60
2023-04-09T03:00:44.433Z,63.85
2023-04-09T03:03:11.516Z,63.91
2023-04-09T03:05:39.058Z,63.77
2023-04-09T03:08:05.880Z,63.77
2023-04-09T03:10:32.852Z,63.60
2023-04-09T03:12:59.523Z,63.65
2023-04-09T03:15:26.172Z,63.67
2023-04-09T03:17:53.167Z,63.75
2023-04-09T03:20:19.888Z,63.89
2023-04-09T03:22:46.554Z,63.62
2023-04-09T03:25:13.646Z,63.58
2023-04-09T03:27:40.357Z,63.64
2023-04-09T03:30:07.654Z,63.96
2023-04-09T03:32:34.566Z,64.03
2023-04-09T03:35:01.261Z,63.93
2023-04-09T03:37:27.902Z,63.77
2023-04-09T03:39:54.896Z,64.13
2023-04-09T03:42:21.572Z,64.02
2023-04-09T03:44:48.245Z,63.96
2023-04-09T03:47:15.317Z,64.14
2023-04-09T03:49:42.022Z,64.01
2023-04-09T03:52:08.669Z,63.99
2023-04-09T03:54:35.714Z,64.11
2023-04-09T03:57:03.829Z,64.02
2023-04-09T03:59:30.756Z,64.19
2023-04-09T04:01:57.770Z,64.29
2023-04-09T04:04:24.537Z,64.15
2023-04-09T04:06:51.572Z,64.36
2023-04-09T04:09:18.569Z,64.34
2023-04-09T04:11:45.416Z,64.29
2023-04-09T04:14:12.061Z,64.63
2023-04-09T04:16:41.148Z,64.55
2023-04-09T04:19:07.878Z,64.48
2023-04-09T04:21:34.534Z,64.61
2023-04-09T04:24:03.485Z,64.80
2023-04-09T04:26:30.335Z,64.76
2023-04-09T04:28:56.997Z,64.95
2023-04-09T04:31:24.018Z,65.11
2023-04-09T04:33:50.759Z,65.24
2023-04-09T04:36:17.427Z,65.41
2023-04-09T04:38:44.592Z,65.31
2023-04-09T04:41:11.997Z,65.74
2023-04-09T04:43:38.689Z,65.58
2023-04-09T04:46:06.503Z,65.80
2023-04-09T04:48:33.276Z,65.64
2023-04-09T04:51:01.980Z,66.11
2023-04-09T04:53:28.907Z,66.03
2023-04-09T04:55:55.654Z,66.32
2023-04-09T04:58:22.342Z,66.18
2023-04-09T05:00:49.394Z,66.30
2023-04-09T05:03:16.482Z,66.18
2023-04-09T05:05:43.390Z,66.48
2023-04-09T05:08:10.443Z,66.68
2023-04-09T05:10:37.369Z,66.53
2023-04-09T05:13:04.153Z,66.57
2023-04-09T05:15:31.211Z,66.78
2023-04-09T05:17:58.341Z,66.85
2023-04-09T05:20:27.358Z,66.73
2023-04-09T05:22:54.397Z,66.94
2023-04-09T05:25:21.089Z,66.97
2023-04-09T05:27:47.793Z,67.00
2023-04-09T05:30:14.692Z,67.28
2023-04-09T05:32:41.518Z,67.35
2023-04-09T05:35:08.589Z,67.32
2023-04-09T05:37:35.802Z,67.41
2023-04-09T05:40:02.989Z,67.35
2023-04-09T05:42:29.748Z,67.41
2023-04-09T05:44:56.878Z,67.67
2023-04-09T05:47:23.526Z,67.55
2023-04-09T05:49:50.221Z,67.74
2023-04-09T05:52:17.462Z,67.58
2023-04-09T05:54:44.128Z,67.71
2023-04-09T05:57:10.816Z,67.83
2023-04-09T05:59:37.966Z,68.10
2023-04-09T06:02:04.728Z,67.87
2023-04-09T06:04:31.930Z,67.98
2023-04-09T06:07:00.583Z,68.02
2023-04-09T06:09:30.360Z,68.30
2023-04-09T06:11:58.631Z,68.28
2023-04-09T06:14:25.567Z,68.14
2023-04-09T06:16:52.239Z,68.27
2023-04-09T06:19:19.051Z,68.16
2023-04-09T06:21:46.146Z,68.11
2023-04-09T06:24:12.868Z,68.30
2023-04-09T06:26:39.613Z,68.30
2023-04-09T06:29:06.727Z,68.26
2023-04-09T06:31:33.607Z,68.19
2023-04-09T06:34:00.482Z,68.05
2023-04-09T06:36:28.046Z,68.07
2023-04-09T06:38:54.841Z,68.07
2023-04-09T06:41:22.599Z,68.14
2023-04-09T06:43:49.918Z,68.14
2023-04-09T06:46:20.149Z,68.00
2023-04-09T06:48:47.425Z,67.82
2023-04-09T06:51:15.313Z,67.87
2023-04-09T06:53:42.273Z,67.81
2023-04-09T06:56:09.095Z,67.94
2023-04-09T06:58:36.524Z,67.82
2023-04-09T07:01:03.513Z,67.62
2023-04-09T07:03:30.468Z,67.76
2023-04-09T07:05:57.910Z,67.88
2023-04-09T07:08:25.133Z,67.88
2023-04-09T07:10:51.794Z,67.87
2023-04-09T07:13:18.677Z,67.79
2023-04-09T07:15:45.539Z,67.86
2023-04-09T07:18:12.381Z,67.77
2023-04-09T07:20:39.335Z,67.80
2023-04-09T07:23:06.105Z,67.87
2023-04-09T07:25:32.868Z,67.59
2023-04-09T07:28:00.108Z,67.59
2023-04-09T07:30:27.483Z,67.67
2023-04-09T07:32:54.434Z,67.59
2023-04-09T07:35:21.843Z,67.52
2023-04-09T07:37:48.599Z,67.86
2023-04-09T07:40:15.486Z,67.80
2023-04-09T07:42:42.701Z,67.56
2023-04-09T07:45:09.707Z,67.46
2023-04-09T07:47:38.132Z,67.71
2023-04-09T07:50:05.695Z,67.61
2023-04-09T07:52:32.494Z,67.73
2023-04-09T07:54:59.170Z,67.71
2023-04-09T07:57:26.071Z,67.74
2023-04-09T07:59:53.477Z,67.56
2023-04-09T08:02:20.190Z,67.42
2023-04-09T08:04:47.286Z,67.62
2023-04-09T08:07:14.066Z,67.41
2023-04-09T08:09:41.094Z,67.58
2023-04-09T08:12:08.278Z,67.39
2023-04-09T08:14:35.053Z,67.10
2023-04-09T08:17:01.753Z,66.97
2023-04-09T08:19:28.486Z,67.01
2023-04-09T08:21:55.617Z,67.03
2023-04-09T08:24:22.566Z,66.65
2023-04-09T08:26:49.460Z,66.64
2023-04-09T08:29:16.246Z,66.70
2023-04-09T08:31:43.243Z,66.30
2023-04-09T08:34:10.173Z,66.58
2023-04-09T08:36:37.161Z,66.44
2023-04-09T08:39:04.153Z,66.07
2023-04-09T08:41:31.502Z,65.98
2023-04-09T08:43:59.887Z,66.08
2023-04-09T08:46:27.859Z,65.61
2023-04-09T08:48:55.348Z,65.61
2023-04-09T08:51:23.753Z,65.42
2023-04-09T08:53:57.270Z,65.45
2023-04-09T08:56:24.662Z,65.25
2023-04-09T08:58:51.742Z,65.37
2023-04-09T09:01:26.246Z,65.28
2023-04-09T09:03:57.376Z,65.19
2023-04-09T09:06:27.389Z,65.15
2023-04-09T09:09:17.691Z,64.91
2023-04-09T09:11:46.568Z,64.69
2023-04-09T09:14:15.501Z,64.44
2023-04-09T09:16:45.030Z,64.23
2023-04-09T09:19:27.333Z,64.06
2023-04-09T09:21:57.951Z,63.99
2023-04-09T09:24:24.734Z,64.22
2023-04-09T09:26:52.351Z,63.66
2023-04-09T09:29:20.149Z,63.58
2023-04-09T09:31:49.492Z,63.40
2023-04-09T09:34:17.655Z,63.39
2023-04-09T09:36:45.961Z,63.19
2023-04-09T09:39:14.089Z,63.37
2023-04-09T09:41:44.188Z,63.01
2023-04-09T09:44:12.923Z,63.22
2023-04-09T09:46:42.472Z,62.89
2023-04-09T09:49:10.115Z,63.16
2023-04-09T09:51:39.386Z,63.20
2023-04-09T09:54:08.187Z,63.11
2023-04-09T09:56:39.727Z,63.20
2023-04-09T09:59:23.342Z,63.05
2023-04-09T10:02:02.941Z,62.88
2023-04-09T10:04:33.513Z,62.77
2023-04-09T10:07:02.704Z,62.99
2023-04-09T10:09:29.884Z,62.88
2023-04-09T10:11:59.374Z,62.94
2023-04-09T10:14:28.906Z,62.92
2023-04-09T10:16:56.318Z,62.98
2023-04-09T10:19:23.991Z,63.27
2023-04-09T10:21:57.994Z,63.39
2023-04-09T10:24:25.483Z,63.07
2023-04-09T10:26:54.944Z,63.19
2023-04-09T10:29:29.021Z,63.54
2023-04-09T10:32:06.451Z,63.23
2023-04-09T10:34:40.151Z,63.67
2023-04-09T10:37:20.610Z,63.54
2023-04-09T10:39:48.880Z,63.24
2023-04-09T10:42:22.138Z,63.32
2023-04-09T10:45:04.648Z,63.73
2023-04-09T10:47:34.218Z,63.64
2023-04-09T10:50:24.733Z,63.53
2023-04-09T10:52:57.474Z,63.59
2023-04-09T10:55:31.251Z,63.79
2023-04-09T10:57:58.581Z,63.60
2023-04-09T11:00:25.538Z,63.87
2023-04-09T11:03:13.888Z,64.13
2023-04-09T11:05:43.474Z,63.76
2023-04-09T11:08:14.561Z,64.21
2023-04-09T11:10:46.396Z,63.96
2023-04-09T11:13:15.506Z,64.05
2023-04-09T11:15:44.092Z,64.25
2023-04-09T11:18:25.309Z,64.21
2023-04-09T11:21:04.149Z,64.57
2023-04-09T11:23:32.317Z,64.32
2023-04-09T11:25:59.100Z,64.48
2023-04-09T11:28:26.550Z,64.70
2023-04-09T11:30:53.973Z,64.47
2023-04-09T11:33:20.830Z,64.72
2023-04-09T11:35:48.328Z,64.74
2023-04-09T11:38:15.333Z,64.73
2023-04-09T11:40:48.752Z,64.37
2023-04-09T11:43:16.942Z,64.74
2023-04-09T11:45:44.454Z,64.51
2023-04-09T11:48:11.712Z,64.65
2023-04-09T11:50:38.800Z,64.78
2023-04-09T11:53:21.916Z,64.59
2023-04-09T11:55:52.092Z,64.51
2023-04-09T11:58:22.250Z,64.57
2023-04-09T12:00:49.009Z,64.26
2023-04-09T12:03:16.873Z,64.25
2023-04-09T12:05:50.590Z,64.49
2023-04-09T12:08:24.040Z,64.72
2023-04-09T12:10:53.399Z,64.34
2023-04-09T12:13:21.013Z,64.39
2023-04-09T12:15:49.396Z,64.31
2023-04-09T12:18:16.052Z,64.04
2023-04-09T12:20:44.336Z,63.83
2023-04-09T12:23:12.399Z,64.12
2023-04-09T12:25:41.428Z,63.83
2023-04-09T12:28:12.142Z,63.95
2023-04-09T12:30:39.066Z,63.74
2023-04-09T12:33:08.271Z,63.61
2023-04-09T12:35:38.265Z,63.78
2023-04-09T12:38:05.533Z,64.15
2023-04-09T12:40:32.480Z,63.77
2023-04-09T12:42:59.364Z,63.86
2023-04-09T12:45:26.709Z,63.94
2023-04-09T12:47:53.665Z,64.05
2023-04-09T12:50:20.525Z,64.05
2023-04-09T12:52:47.813Z,64.03
2023-04-09T12:55:15.646Z,64.17
2023-04-09T12:57:47.275Z,63.90
2023-04-09T13:00:15.100Z,64.19
2023-04-09T13:02:42.389Z,63.89
2023-04-09T13:05:09.561Z,63.81
2023-04-09T13:07:36.386Z,64.07
2023-04-09T13:10:03.524Z,63.90
2023-04-09T13:12:30.853Z,63.81
2023-04-09T13:14:59.320Z,63.82
2023-04-09T13:17:26.263Z,63.90
2023-04-09T13:19:53.698Z,63.82
2023-04-09T13:22:20.625Z,64.08
2023-04-09T13:24:47.451Z,64.10
2023-04-09T13:27:14.409Z,63.92
2023-04-09T13:29:41.212Z,64.05
2023-04-09T13:32:07.978Z,64.39
2023-04-09T13:34:35.716Z,64.36
2023-04-09T13:37:05.905Z,64.61
2023-04-09T13:39:33.246Z,64.65
2023-04-09T13:42:01.466Z,64.95
2023-04-09T13:44:30.595Z,64.93
2023-04-09T13:46:57.385Z,64.92
2023-04-09T13:49:24.398Z,65.26
2023-04-09T13:51:51.266Z,65.42
2023-04-09T13:54:19.003Z,65.60
2023-04-09T13:56:46.815Z,65.48
2023-04-09T13:59:13.677Z,65.61
2023-04-09T14:01:41.017Z,66.22
2023-04-09T14:04:08.382Z,66.36
2023-04-09T14:06:35.374Z,66.47
2023-04-09T14:09:02.625Z,66.65
2023-04-09T14:11:29.672Z,66.57
2023-04-09T14:13:56.562Z,67.01
2023-04-09T14:16:23.974Z,66.98
2023-04-09T14:18:51.475Z,67.40
2023-04-09T14:21:18.981Z,67.42
2023-04-09T14:23:46.192Z,67.67
2023-04-09T14:26:13.029Z,67.63
2023-04-09T14:28:39.972Z,67.85
2023-04-09T14:31:07.017Z,67.84
2023-04-09T14:33:33.835Z,67.73
2023-04-09T14:36:01.066Z,67.72
2023-04-09T14:38:27.937Z,67.89
2023-04-09T14:40:54.803Z,67.68
2023-04-09T14:43:21.616Z,67.74
2023-04-09T14:45:48.385Z,67.56
2023-04-09T14:48:15.469Z,67.48
2023-04-09T14:50:43.288Z,67.34
2023-04-09T14:53:10.331Z,67.05
2023-04-09T14:55:37.138Z,66.78
2023-04-09T14:58:04.745Z,66.16
2023-04-09T15:00:32.422Z,65.88
2023-04-09T15:03:00.206Z,65.88
2023-04-09T15:05:27.463Z,65.75
2023-04-09T15:07:55.959Z,65.79
2023-04-09T15:10:22.734Z,65.69
2023-04-09T15:12:49.608Z,65.67
2023-04-09T15:15:16.426Z,65.48
2023-04-09T15:17:43.279Z,65.71
2023-04-09T15:20:10.648Z,65.89
2023-04-09T15:22:37.376Z,65.83
2023-04-09T15:25:04.220Z,66.01
2023-04-09T15:27:31.270Z,65.69
2023-04-09T15:29:58.185Z,65.86
2023-04-09T15:32:25.137Z,65.61
2023-04-09T15:34:51.994Z,65.94
2023-04-09T15:37:18.787Z,66.02
2023-04-09T15:39:45.855Z,66.11
2023-04-09T15:42:14.658Z,65.79
2023-04-09T15:44:41.619Z,66.22
2023-04-09T15:47:08.365Z,66.27
2023-04-09T15:49:37.061Z,66.39
2023-04-09T15:52:04.150Z,66.61
2023-04-09T15:54:31.137Z,66.83
2023-04-09T15:56:57.908Z,66.68
2023-04-09T15:59:24.772Z,66.92
2023-04-09T16:01:52.697Z,67.08
2023-04-09T16:04:19.560Z,67.50
2023-04-09T16:06:46.386Z,67.58
2023-04-09T16:09:13.085Z,67.25
2023-04-09T16:11:40.705Z,67.23
2023-04-09T16:14:09.114Z,67.13
2023-04-09T16:16:37.100Z,67.23
2023-04-09T16:19:03.997Z,67.19
2023-04-09T16:21:31.201Z,67.58
2023-04-09T16:23:57.906Z,67.51
2023-04-09T16:26:24.663Z,67.46
2023-04-09T16:28:51.801Z,67.92
2023-04-09T16:31:18.822Z,67.86
2023-04-09T16:33:45.618Z,67.94
2023-04-09T16:36:12.348Z,68.12
2023-04-09T16:38:39.334Z,67.93
